Startpagina
METAR-TAF:

METAR-TAF

Vliegvelden :

Georgetown, Ascension

breedte: 07-58S, lengte: 014-24W, hoogte: 86 m

Actueel weer

Dit bericht is 22 minuten geleden gemaakt, om 11:50 UTC
Wind 19 kt uit het oostzuidoosten met uitschieters tot 29 kt
Temperatuur 28°C
Vochtigheid 55%
Druk 1015 hPa
Zicht 10 km of meer
Weinig wolken op 2400 ft

METAR: FHAW 221150Z 12019G29KT 9999 FEW024 28/18 Q1015 BLU

Tijdstip: 12:12 (12:12 UTC)

Verwachting

Dit bericht is 1 uur en het 42 minuten geleden gemaakt, om 10:30 UTC
Verwachting geldig van 22 om 12 UTC tot 23 om 06 UTC
Wind 18 kt uit het oostzuidoosten met uitschieters tot 28 kt
Zicht 10 km of meer
Weinig wolken op 2500 ft
Kans 30% :
Tijdelijke
van 22 om 12 UTC tot 23 om 06 UTC
Zicht: 7000 m
Verspreide wolken op 1500 ft
regenbuien

TAF: FHAW 221030Z 2212/2306 12018G28KT 9999 FEW025 PROB30 TEMPO 2212/2306 7000 SHRA SCT015

Waarnemingen en weersverwachtingen van meer dan 4000 vliegvelden (METAR en TAF).

De beschikbare stations zijn de gele en rode punten op de kaart.

Ga met uw muis naar het station om de naam te zien.

Klik dan om waarnemingen en weersverwachtingen te zien.

kaart wijzigen: klik op de groene knoppen met een zwart kruis om in te zoomen, op de groene knop met een streepje om uit te zoomen of op de groene pijlen voor aangrenzende kaarten.


METAR-TAF: